Time;durP1;ratioP1;P1;durP2;ratioP2;P2;SDS_P1;SDS_P2;PMS_P1;PMS_P2;Temp;Humidity;BMP_temperature;BMP_pressure;BME280_temperature;BME280_humidity;BME280_pressure;Samples;Min_cycle;Max_cycle;Signal;HPM_P1;HPM_P2
2022/11/28 00:00:52;;;;;;;;;;;5.80;99.90;;;;;;5071711;28;19920;-77
2022/11/28 00:03:17;;;;;;;;;;;5.40;99.90;;;;;;5070691;28;19926;-77
2022/11/28 00:05:43;;;;;;;;;;;5.40;99.90;;;;;;5070904;28;20009;-77
2022/11/28 00:08:08;;;;;;;;;;;5.50;99.90;;;;;;5055500;28;19986;-77
2022/11/28 00:10:37;;;;;;;;;;;5.40;99.90;;;;;;5069434;28;20362;-79
2022/11/28 00:13:02;;;;;;;;;;;5.40;99.90;;;;;;5067376;28;19931;-80
2022/11/28 00:15:28;;;;;;;;;;;5.30;99.90;;;;;;5064644;28;19924;-77
2022/11/28 00:17:53;;;;;;;;;;;5.40;99.90;;;;;;5039985;28;20003;-79
2022/11/28 00:20:19;;;;;;;;;;;5.40;99.90;;;;;;5059787;28;20259;-77
2022/11/28 00:22:44;;;;;;;;;;;5.40;99.90;;;;;;5068801;28;19927;-78
2022/11/28 00:25:10;;;;;;;;;;;5.30;99.90;;;;;;5069975;28;19925;-77
2022/11/28 00:27:36;;;;;;;;;;;5.40;99.90;;;;;;5054532;28;19920;-78
2022/11/28 00:30:01;;;;;;;;;;;5.30;99.90;;;;;;5071640;28;19920;-77
2022/11/28 00:32:27;;;;;;;;;;;5.40;99.90;;;;;;5070003;28;20427;-82
2022/11/28 00:34:52;;;;;;;;;;;5.30;99.90;;;;;;5070968;28;20393;-79
2022/11/28 00:37:18;;;;;;;;;;;5.40;99.90;;;;;;5055398;28;20474;-78
2022/11/28 00:39:43;;;;;;;;;;;5.40;99.90;;;;;;5070431;28;19925;-78
2022/11/28 00:42:09;;;;;;;;;;;5.40;99.90;;;;;;5069989;28;19928;-76
2022/11/28 00:44:35;;;;;;;;;;;5.30;99.90;;;;;;5070982;28;19921;-77
2022/11/28 00:47:01;;;;;;;;;;;5.40;99.90;;;;;;5055498;28;19924;-77
2022/11/28 00:49:26;;;;;;;;;;;5.50;99.90;;;;;;5069001;28;19932;-77
2022/11/28 00:51:52;;;;;;;;;;;5.40;99.90;;;;;;5068944;28;19935;-77
2022/11/28 00:54:17;;;;;;;;;;;5.60;99.90;;;;;;5070220;28;19921;-77
2022/11/28 00:56:43;;;;;;;;;;;5.50;99.90;;;;;;5087910;28;19970;-80
2022/11/28 00:59:08;;;;;;;;;;;5.40;99.90;;;;;;5069623;28;19927;-78
2022/11/28 01:01:35;;;;;;;;;;;5.40;99.90;;;;;;5070163;28;19978;-78
2022/11/28 01:04:03;;;;;;;;;;;5.40;99.90;;;;;;5068871;28;19971;-78
2022/11/28 01:06:31;;;;;;;;;;;5.40;99.90;;;;;;5058025;28;19920;-80
2022/11/28 01:08:57;;;;;;;;;;;5.40;99.90;;;;;;5067984;28;19928;-77
2022/11/28 01:11:23;;;;;;;;;;;5.40;99.90;;;;;;5050510;28;19920;-78
2022/11/28 01:13:49;;;;;;;;;;;5.50;99.90;;;;;;5049812;28;19928;-78
2022/11/28 01:16:15;;;;;;;;;;;5.40;99.90;;;;;;5040264;28;19925;-82
2022/11/28 01:18:41;;;;;;;;;;;5.50;99.90;;;;;;5044803;28;19944;-78
2022/11/28 01:21:07;;;;;;;;;;;5.50;99.90;;;;;;5079594;28;20278;-77
2022/11/28 01:23:33;;;;;;;;;;;5.50;99.90;;;;;;5055687;28;19920;-77
2022/11/28 01:25:59;;;;;;;;;;;5.50;99.90;;;;;;5070457;28;20570;-77
2022/11/28 01:28:25;;;;;;;;;;;5.50;99.90;;;;;;5052902;28;19925;-78
2022/11/28 01:30:50;;;;;;;;;;;5.40;99.90;;;;;;5070423;28;19920;-78
2022/11/28 01:33:16;;;;;;;;;;;5.40;99.90;;;;;;5069458;28;19955;-77
2022/11/28 01:35:42;;;;;;;;;;;5.50;99.90;;;;;;5070185;28;19921;-77
2022/11/28 01:38:07;;;;;;;;;;;5.60;99.90;;;;;;5054659;28;19920;-77
2022/11/28 01:40:33;;;;;;;;;;;5.50;99.90;;;;;;5070378;28;19952;-77
2022/11/28 01:42:58;;;;;;;;;;;5.50;99.90;;;;;;5069153;28;20255;-77
2022/11/28 01:45:26;;;;;;;;;;;5.50;99.90;;;;;;5070396;28;20329;-77
2022/11/28 01:47:55;;;;;;;;;;;5.60;99.90;;;;;;5053872;28;19928;-78
2022/11/28 01:50:21;;;;;;;;;;;5.50;99.90;;;;;;5070086;28;19924;-79
2022/11/28 01:52:48;;;;;;;;;;;5.60;99.90;;;;;;5069401;28;19924;-77
2022/11/28 01:55:16;;;;;;;;;;;5.60;99.90;;;;;;5068667;28;19978;-78
2022/11/28 01:57:42;;;;;;;;;;;5.60;99.90;;;;;;5053450;28;19960;-76
2022/11/28 02:00:09;;;;;;;;;;;5.70;99.90;;;;;;5069931;28;20354;-78
2022/11/28 02:02:40;;;;;;;;;;;5.70;99.90;;;;;;5068451;28;19997;-78
2022/11/28 02:05:05;;;;;;;;;;;5.70;99.90;;;;;;5069684;28;20354;-78
2022/11/28 02:07:32;;;;;;;;;;;5.60;99.90;;;;;;5053108;28;19996;-77
2022/11/28 02:09:58;;;;;;;;;;;5.60;99.90;;;;;;5069770;28;19921;-77
2022/11/28 02:12:23;;;;;;;;;;;5.60;99.90;;;;;;5069240;28;20390;-78
2022/11/28 02:14:58;;;;;;;;;;;5.60;99.90;;;;;;5070053;28;19930;-78
2022/11/28 02:17:50;;;;;;;;;;;5.60;99.90;;;;;;5055357;28;19921;-77
2022/11/28 02:20:34;;;;;;;;;;;5.60;99.90;;;;;;5072202;28;19927;-78
2022/11/28 02:23:19;;;;;;;;;;;5.60;99.90;;;;;;5072872;28;20435;-79
2022/11/28 02:25:50;;;;;;;;;;;5.70;99.90;;;;;;5073117;28;20011;-78
2022/11/28 02:28:36;;;;;;;;;;;5.70;99.90;;;;;;5057258;28;19928;-77
2022/11/28 02:31:07;;;;;;;;;;;5.70;99.90;;;;;;5073422;28;19934;-77
2022/11/28 02:33:36;;;;;;;;;;;5.70;99.90;;;;;;5072931;28;19956;-77
2022/11/28 02:36:13;;;;;;;;;;;5.70;99.90;;;;;;5072728;28;19921;-78
2022/11/28 02:38:39;;;;;;;;;;;5.70;99.90;;;;;;5067041;28;19927;-77
2022/11/28 02:41:04;;;;;;;;;;;5.70;99.90;;;;;;5073379;28;19920;-77
2022/11/28 02:43:42;;;;;;;;;;;5.70;99.90;;;;;;5072233;28;19920;-76
2022/11/28 02:46:26;;;;;;;;;;;5.70;99.90;;;;;;5067928;28;20382;-82
2022/11/28 02:48:54;;;;;;;;;;;5.70;99.90;;;;;;5084657;28;19978;-78
2022/11/28 02:51:25;;;;;;;;;;;5.70;99.90;;;;;;5073390;28;20432;-77
2022/11/28 02:53:51;;;;;;;;;;;5.70;99.90;;;;;;5071876;28;19927;-76
2022/11/28 02:56:17;;;;;;;;;;;5.70;99.90;;;;;;5062024;28;19946;-79
2022/11/28 02:58:42;;;;;;;;;;;5.80;99.90;;;;;;5066911;28;19920;-77
2022/11/28 03:01:14;;;;;;;;;;;5.70;99.90;;;;;;5072783;28;19982;-78
2022/11/28 03:04:02;;;;;;;;;;;5.90;99.90;;;;;;5071722;28;20270;-77
2022/11/28 03:06:37;;;;;;;;;;;5.80;99.90;;;;;;5060373;28;19920;-77
2022/11/28 03:09:21;;;;;;;;;;;5.80;99.90;;;;;;5102353;28;20251;-77
2022/11/28 03:12:04;;;;;;;;;;;5.80;99.90;;;;;;5072905;28;19931;-77
2022/11/28 03:14:41;;;;;;;;;;;5.80;99.90;;;;;;5071608;28;19950;-79
2022/11/28 03:17:06;;;;;;;;;;;5.80;99.90;;;;;;5055623;28;20384;-77
2022/11/28 03:19:50;;;;;;;;;;;5.80;99.90;;;;;;5071732;28;19920;-77
2022/11/28 03:22:42;;;;;;;;;;;5.80;99.90;;;;;;5070585;28;19928;-80
2022/11/28 03:25:26;;;;;;;;;;;5.80;99.90;;;;;;5049237;28;19920;-79
2022/11/28 03:28:06;;;;;;;;;;;5.80;99.90;;;;;;5054980;28;19920;-77
2022/11/28 03:30:36;;;;;;;;;;;5.80;99.90;;;;;;5071759;28;19920;-77
2022/11/28 03:33:02;;;;;;;;;;;5.80;99.90;;;;;;5071227;28;19921;-77
2022/11/28 03:35:30;;;;;;;;;;;5.90;99.90;;;;;;5072282;28;19960;-78
2022/11/28 03:38:08;;;;;;;;;;;5.90;99.90;;;;;;5054603;28;19927;-77
2022/11/28 03:40:36;;;;;;;;;;;5.90;99.90;;;;;;5071233;28;19921;-78
2022/11/28 03:43:11;;;;;;;;;;;5.90;99.90;;;;;;5071496;28;19928;-77
2022/11/28 03:45:39;;;;;;;;;;;5.90;99.90;;;;;;5071377;28;20412;-78
2022/11/28 03:48:14;;;;;;;;;;;6.00;99.90;;;;;;5054796;28;20059;-77
2022/11/28 03:50:50;;;;;;;;;;;5.90;99.90;;;;;;5072001;28;20029;-77
2022/11/28 03:53:18;;;;;;;;;;;6.00;99.90;;;;;;5069164;28;19934;-77
2022/11/28 03:55:56;;;;;;;;;;;6.00;99.90;;;;;;5087945;28;19963;-77
2022/11/28 03:58:25;;;;;;;;;;;6.00;99.90;;;;;;5055284;28;20359;-77
2022/11/28 04:01:09;;;;;;;;;;;6.00;99.90;;;;;;5071886;28;19921;-78
2022/11/28 04:03:44;;;;;;;;;;;6.00;99.90;;;;;;5070816;28;19935;-79
2022/11/28 04:06:20;;;;;;;;;;;6.00;99.90;;;;;;5063937;28;19920;-81
2022/11/28 04:08:55;;;;;;;;;;;6.10;99.90;;;;;;5066143;28;19927;-77
2022/11/28 04:11:27;;;;;;;;;;;6.10;99.90;;;;;;5071893;28;19920;-77
2022/11/28 04:13:58;;;;;;;;;;;6.00;99.90;;;;;;5070756;28;20325;-77
2022/11/28 04:16:36;;;;;;;;;;;6.10;99.90;;;;;;5058951;28;19920;-79
2022/11/28 04:19:09;;;;;;;;;;;6.10;99.90;;;;;;5068076;28;19920;-78
2022/11/28 04:21:40;;;;;;;;;;;6.10;99.90;;;;;;5071277;28;20438;-78
2022/11/28 04:24:20;;;;;;;;;;;6.10;99.90;;;;;;5070002;28;20378;-77
2022/11/28 04:27:06;;;;;;;;;;;6.20;99.90;;;;;;5055426;28;20358;-77
2022/11/28 04:29:38;;;;;;;;;;;6.20;99.90;;;;;;5069669;28;19920;-79
2022/11/28 04:32:05;;;;;;;;;;;6.20;99.90;;;;;;5070339;28;19920;-76
2022/11/28 04:34:31;;;;;;;;;;;6.20;99.90;;;;;;5069088;28;20370;-78
2022/11/28 04:36:57;;;;;;;;;;;6.30;99.90;;;;;;5055022;28;20382;-77
2022/11/28 04:39:24;;;;;;;;;;;6.30;99.90;;;;;;5070009;28;19987;-77
2022/11/28 04:41:52;;;;;;;;;;;6.30;99.90;;;;;;5071612;28;19975;-77
2022/11/28 04:44:23;;;;;;;;;;;6.40;99.90;;;;;;5069617;28;19928;-78
2022/11/28 04:46:51;;;;;;;;;;;6.30;99.90;;;;;;5055734;28;20279;-78
2022/11/28 04:49:16;;;;;;;;;;;6.40;99.90;;;;;;5068966;28;20424;-78
2022/11/28 04:51:45;;;;;;;;;;;6.40;99.90;;;;;;5069358;28;19978;-78
2022/11/28 04:54:15;;;;;;;;;;;6.40;99.90;;;;;;5069208;28;19928;-77
2022/11/28 04:57:01;;;;;;;;;;;6.60;99.90;;;;;;5057367;28;19920;-77
2022/11/28 04:59:29;;;;;;;;;;;6.50;99.90;;;;;;5068616;28;19924;-77
2022/11/28 05:01:57;;;;;;;;;;;6.50;99.90;;;;;;5070831;28;19927;-77
2022/11/28 05:04:22;;;;;;;;;;;6.50;99.90;;;;;;5067731;28;20019;-79
2022/11/28 05:06:48;;;;;;;;;;;6.50;99.90;;;;;;5055621;28;19999;-77
2022/11/28 05:09:14;;;;;;;;;;;6.60;99.90;;;;;;5069343;28;20247;-77
2022/11/28 05:11:39;;;;;;;;;;;6.50;99.90;;;;;;5086069;28;20460;-78
2022/11/28 05:14:05;;;;;;;;;;;6.60;99.90;;;;;;5069072;28;19920;-77
2022/11/28 05:16:30;;;;;;;;;;;6.60;99.90;;;;;;5072485;28;20270;-78
2022/11/28 05:18:56;;;;;;;;;;;6.70;99.90;;;;;;5067691;28;19928;-77
2022/11/28 05:21:21;;;;;;;;;;;6.70;99.90;;;;;;5070294;28;19921;-78
2022/11/28 05:23:47;;;;;;;;;;;6.70;99.90;;;;;;5068969;28;19924;-78
2022/11/28 05:26:15;;;;;;;;;;;6.70;99.90;;;;;;5058283;28;19925;-78
2022/11/28 05:28:44;;;;;;;;;;;6.70;99.90;;;;;;5063907;28;19920;-77
2022/11/28 05:31:10;;;;;;;;;;;6.70;99.90;;;;;;5067225;28;19936;-77
2022/11/28 05:33:36;;;;;;;;;;;6.70;99.90;;;;;;5066588;28;19925;-78
2022/11/28 05:36:03;;;;;;;;;;;6.70;99.90;;;;;;5065812;28;19924;-79
2022/11/28 05:38:30;;;;;;;;;;;6.70;99.90;;;;;;5032643;28;19943;-77
2022/11/28 05:40:55;;;;;;;;;;;6.70;99.90;;;;;;5065935;28;19927;-78
2022/11/28 05:43:21;;;;;;;;;;;6.90;99.90;;;;;;5069314;28;20374;-77
2022/11/28 05:45:46;;;;;;;;;;;6.80;99.90;;;;;;5069769;28;20653;-77
2022/11/28 05:48:12;;;;;;;;;;;6.80;99.90;;;;;;5053663;28;19921;-77
2022/11/28 05:50:39;;;;;;;;;;;6.90;99.90;;;;;;5070905;28;19927;-81
2022/11/28 05:53:04;;;;;;;;;;;6.80;99.90;;;;;;5073104;28;20247;-77
2022/11/28 05:55:30;;;;;;;;;;;6.90;99.90;;;;;;5073902;28;19921;-78
2022/11/28 05:57:55;;;;;;;;;;;7.10;99.90;;;;;;5057712;28;19962;-77
2022/11/28 06:00:21;;;;;;;;;;;6.90;99.90;;;;;;5073650;28;19970;-77
2022/11/28 06:02:46;;;;;;;;;;;6.90;99.90;;;;;;5089342;28;19931;-78
2022/11/28 06:05:12;;;;;;;;;;;6.90;99.90;;;;;;5079109;28;19947;-82
2022/11/28 06:07:38;;;;;;;;;;;7.00;99.90;;;;;;5090088;28;19925;-78
2022/11/28 06:10:03;;;;;;;;;;;6.90;99.90;;;;;;5073912;28;19932;-77
2022/11/28 06:12:29;;;;;;;;;;;7.00;99.90;;;;;;5073159;28;20012;-77
2022/11/28 06:14:54;;;;;;;;;;;7.00;99.90;;;;;;5074078;28;19920;-78
2022/11/28 06:17:20;;;;;;;;;;;7.00;99.90;;;;;;5057311;28;19924;-81
2022/11/28 06:19:46;;;;;;;;;;;7.00;99.90;;;;;;5073626;28;19921;-78
2022/11/28 06:22:11;;;;;;;;;;;7.00;99.90;;;;;;5073116;28;20289;-78
2022/11/28 06:24:37;;;;;;;;;;;7.10;99.90;;;;;;5073587;28;20318;-77
2022/11/28 06:27:02;;;;;;;;;;;7.10;99.90;;;;;;5057059;28;20270;-78
2022/11/28 06:29:28;;;;;;;;;;;7.00;99.90;;;;;;5071437;28;20262;-82
2022/11/28 06:31:54;;;;;;;;;;;7.00;99.90;;;;;;5073178;28;19939;-77
2022/11/28 06:34:20;;;;;;;;;;;7.00;99.90;;;;;;5072510;28;20003;-78
2022/11/28 06:36:46;;;;;;;;;;;7.10;99.90;;;;;;5058314;28;20003;-77
2022/11/28 06:39:13;;;;;;;;;;;7.00;99.90;;;;;;5088984;28;19927;-77
2022/11/28 06:41:39;;;;;;;;;;;7.10;99.90;;;;;;5072600;28;19928;-78
2022/11/28 06:44:04;;;;;;;;;;;7.10;99.90;;;;;;5071806;28;19920;-77
2022/11/28 06:46:30;;;;;;;;;;;7.10;99.90;;;;;;5058076;28;20372;-81
2022/11/28 06:48:55;;;;;;;;;;;7.10;99.90;;;;;;5050228;28;19942;-77
2022/11/28 06:51:21;;;;;;;;;;;7.20;99.90;;;;;;5053025;28;19946;-77
2022/11/28 06:53:46;;;;;;;;;;;7.10;99.90;;;;;;5052356;28;19994;-77
2022/11/28 06:56:17;;;;;;;;;;;7.10;99.90;;;;;;5042431;28;19921;-80
2022/11/28 06:58:43;;;;;;;;;;;7.10;99.90;;;;;;5063279;28;20429;-78
2022/11/28 07:01:10;;;;;;;;;;;7.10;99.90;;;;;;5065693;28;20389;-77
2022/11/28 07:03:36;;;;;;;;;;;7.20;99.90;;;;;;5055200;28;19950;-78
2022/11/28 07:06:02;;;;;;;;;;;7.10;99.90;;;;;;5068209;28;19924;-80
2022/11/28 07:08:28;;;;;;;;;;;7.20;99.90;;;;;;5056448;28;19931;-78
2022/11/28 07:10:56;;;;;;;;;;;7.20;99.90;;;;;;5072036;28;19959;-77
2022/11/28 07:13:22;;;;;;;;;;;7.20;99.90;;;;;;5071938;28;19920;-77
2022/11/28 07:15:49;;;;;;;;;;;7.10;99.90;;;;;;5072443;28;19928;-78
2022/11/28 07:18:14;;;;;;;;;;;7.10;99.90;;;;;;5056457;28;20290;-79
2022/11/28 07:20:40;;;;;;;;;;;7.20;99.90;;;;;;5072310;28;19921;-79
2022/11/28 07:23:06;;;;;;;;;;;7.20;99.90;;;;;;5103622;28;20032;-77
2022/11/28 07:25:31;;;;;;;;;;;7.20;99.90;;;;;;5072603;28;19920;-77
2022/11/28 07:27:58;;;;;;;;;;;7.30;99.90;;;;;;5055428;28;20023;-77
2022/11/28 07:30:24;;;;;;;;;;;7.20;99.90;;;;;;5071223;28;19938;-77
2022/11/28 07:32:49;;;;;;;;;;;7.20;99.90;;;;;;5069406;28;19924;-83
2022/11/28 07:35:15;;;;;;;;;;;7.20;99.90;;;;;;5071813;28;20341;-78
2022/11/28 07:37:41;;;;;;;;;;;7.30;99.90;;;;;;5054907;28;19925;-77
2022/11/28 07:40:06;;;;;;;;;;;7.20;99.90;;;;;;5071540;28;19968;-77
2022/11/28 07:42:32;;;;;;;;;;;7.20;99.90;;;;;;5071186;28;19924;-77
2022/11/28 07:44:57;;;;;;;;;;;7.20;99.90;;;;;;5071822;28;19921;-77
2022/11/28 07:47:23;;;;;;;;;;;7.20;99.90;;;;;;5055535;28;19921;-77
2022/11/28 07:49:49;;;;;;;;;;;7.20;99.90;;;;;;5070882;28;19970;-78
2022/11/28 07:52:14;;;;;;;;;;;7.20;99.90;;;;;;5070961;28;19936;-79
2022/11/28 07:54:40;;;;;;;;;;;7.20;99.90;;;;;;5071749;28;19921;-78
2022/11/28 07:57:05;;;;;;;;;;;7.20;99.90;;;;;;5054305;28;19931;-78
2022/11/28 07:59:31;;;;;;;;;;;7.20;99.90;;;;;;5053639;28;20313;-79
2022/11/28 08:01:56;;;;;;;;;;;7.20;99.90;;;;;;5071169;28;19924;-79
2022/11/28 08:04:22;;;;;;;;;;;7.20;99.90;;;;;;5070500;28;19924;-78
2022/11/28 08:06:47;;;;;;;;;;;7.20;99.90;;;;;;5054391;28;20362;-77
2022/11/28 08:09:13;;;;;;;;;;;7.30;99.90;;;;;;5062106;28;20035;-77
2022/11/28 08:11:39;;;;;;;;;;;7.30;99.90;;;;;;5060583;28;19952;-78
2022/11/28 08:14:05;;;;;;;;;;;7.30;99.90;;;;;;5048729;28;19986;-79
2022/11/28 08:16:30;;;;;;;;;;;7.30;99.90;;;;;;5037734;28;19928;-82
2022/11/28 08:18:56;;;;;;;;;;;7.30;99.90;;;;;;5048717;28;20456;-83
2022/11/28 08:21:24;;;;;;;;;;;7.30;99.90;;;;;;5050438;28;19928;-78
2022/11/28 08:23:53;;;;;;;;;;;7.20;99.90;;;;;;5049890;28;19933;-82
2022/11/28 08:26:20;;;;;;;;;;;7.30;99.90;;;;;;5040822;28;19964;-81
2022/11/28 08:28:46;;;;;;;;;;;7.30;99.90;;;;;;5044042;28;19951;-77
2022/11/28 08:31:12;;;;;;;;;;;7.30;99.90;;;;;;5051252;28;20017;-79
2022/11/28 08:33:38;;;;;;;;;;;7.30;99.90;;;;;;5065814;28;19933;-77
2022/11/28 08:36:04;;;;;;;;;;;7.30;99.90;;;;;;5050152;28;20028;-82
2022/11/28 08:38:30;;;;;;;;;;;7.30;99.90;;;;;;5034707;28;20240;-81
2022/11/28 08:40:59;;;;;;;;;;;7.30;99.90;;;;;;5050429;28;19932;-77
2022/11/28 08:43:25;;;;;;;;;;;7.30;99.90;;;;;;5049993;28;19932;-81
2022/11/28 08:45:50;;;;;;;;;;;7.40;99.90;;;;;;5051165;28;19985;-77
2022/11/28 08:48:16;;;;;;;;;;;7.50;99.90;;;;;;5033880;28;20023;-83
2022/11/28 08:50:45;;;;;;;;;;;7.30;99.90;;;;;;5051635;28;20035;-83
2022/11/28 08:53:11;;;;;;;;;;;7.40;99.90;;;;;;5050003;28;19974;-78
2022/11/28 08:55:39;;;;;;;;;;;7.40;99.90;;;;;;5051127;28;20301;-77
2022/11/28 08:58:04;;;;;;;;;;;7.40;99.90;;;;;;5033648;28;19939;-83
2022/11/28 09:00:30;;;;;;;;;;;7.40;99.90;;;;;;5050863;28;20298;-80
2022/11/28 09:02:56;;;;;;;;;;;7.40;99.90;;;;;;5050033;28;19920;-76
2022/11/28 09:05:21;;;;;;;;;;;7.30;99.90;;;;;;5051173;28;19938;-80
2022/11/28 09:07:47;;;;;;;;;;;7.40;99.90;;;;;;5033319;28;19933;-77
2022/11/28 09:10:12;;;;;;;;;;;7.40;99.90;;;;;;5049069;28;19936;-82
2022/11/28 09:12:38;;;;;;;;;;;7.40;99.90;;;;;;5050493;28;19921;-76
2022/11/28 09:15:04;;;;;;;;;;;7.40;99.90;;;;;;5050955;28;19933;-79
2022/11/28 09:17:29;;;;;;;;;;;7.40;99.90;;;;;;5033391;28;19994;-80
2022/11/28 09:19:55;;;;;;;;;;;7.40;99.90;;;;;;5050085;28;20019;-82
2022/11/28 09:22:20;;;;;;;;;;;7.40;99.90;;;;;;5050624;28;19935;-77
2022/11/28 09:24:46;;;;;;;;;;;7.50;99.90;;;;;;5050980;28;19939;-77
2022/11/28 09:27:11;;;;;;;;;;;7.40;99.90;;;;;;5034212;28;19932;-76
2022/11/28 09:29:37;;;;;;;;;;;7.40;99.90;;;;;;5048081;28;19959;-77
2022/11/28 09:32:03;;;;;;;;;;;7.50;99.90;;;;;;5049577;28;19927;-77
2022/11/28 09:34:28;;;;;;;;;;;7.50;99.90;;;;;;5049633;28;19946;-77
2022/11/28 09:36:54;;;;;;;;;;;7.50;99.90;;;;;;5035210;28;20006;-79
2022/11/28 09:39:20;;;;;;;;;;;7.50;99.90;;;;;;5049973;28;20389;-77
2022/11/28 09:41:45;;;;;;;;;;;7.50;99.90;;;;;;5050391;28;19921;-76
2022/11/28 09:44:20;;;;;;;;;;;7.50;99.90;;;;;;5050533;28;19939;-77
2022/11/28 09:46:47;;;;;;;;;;;7.50;99.90;;;;;;5033986;28;20388;-77
2022/11/28 09:49:20;;;;;;;;;;;7.60;99.90;;;;;;5049742;28;20070;-77
2022/11/28 09:51:51;;;;;;;;;;;7.60;99.90;;;;;;5049514;28;19964;-80
2022/11/28 09:54:19;;;;;;;;;;;7.60;99.90;;;;;;5049722;28;20022;-77
2022/11/28 09:56:47;;;;;;;;;;;7.60;99.90;;;;;;5035076;28;19920;-77
2022/11/28 09:59:21;;;;;;;;;;;7.70;99.90;;;;;;5048569;28;19921;-80
2022/11/28 10:01:46;;;;;;;;;;;7.60;99.90;;;;;;5049560;28;19931;-76
2022/11/28 10:04:18;;;;;;;;;;;7.60;99.90;;;;;;5050385;28;19921;-77
2022/11/28 10:06:55;;;;;;;;;;;7.60;99.90;;;;;;5036723;28;20268;-82
2022/11/28 10:09:50;;;;;;;;;;;7.70;99.90;;;;;;5046314;28;19931;-76
2022/11/28 10:12:21;;;;;;;;;;;7.60;99.90;;;;;;5048065;28;19936;-77
2022/11/28 10:14:53;;;;;;;;;;;7.60;99.90;;;;;;5050465;28;19932;-81
2022/11/28 10:17:37;;;;;;;;;;;7.70;99.90;;;;;;5033838;28;20394;-81
2022/11/28 10:20:11;;;;;;;;;;;7.70;99.90;;;;;;5049597;28;19962;-80
2022/11/28 10:22:36;;;;;;;;;;;7.70;99.90;;;;;;5048762;28;19943;-77
2022/11/28 10:25:10;;;;;;;;;;;7.70;99.90;;;;;;5049257;28;20370;-80
2022/11/28 10:27:36;;;;;;;;;;;7.70;99.90;;;;;;5032105;28;19979;-79
2022/11/28 10:30:04;;;;;;;;;;;7.70;99.90;;;;;;5048947;28;20580;-77
2022/11/28 10:32:31;;;;;;;;;;;7.80;99.90;;;;;;5048174;28;19932;-78
2022/11/28 10:34:59;;;;;;;;;;;7.80;99.90;;;;;;5048161;28;20081;-79
2022/11/28 10:37:25;;;;;;;;;;;7.80;99.90;;;;;;5033502;28;19982;-79
2022/11/28 10:39:51;;;;;;;;;;;7.80;99.90;;;;;;5050837;28;19932;-81
2022/11/28 10:42:30;;;;;;;;;;;7.80;99.90;;;;;;5051411;28;19952;-80
2022/11/28 10:44:55;;;;;;;;;;;7.80;99.90;;;;;;5052096;28;20018;-78
2022/11/28 10:47:34;;;;;;;;;;;7.80;99.90;;;;;;5036091;28;19932;-79
2022/11/28 10:50:05;;;;;;;;;;;7.80;99.90;;;;;;5051365;28;19932;-82
2022/11/28 10:52:33;;;;;;;;;;;7.90;99.90;;;;;;5052330;28;19932;-77
2022/11/28 10:54:59;;;;;;;;;;;7.90;99.90;;;;;;5051152;28;19985;-83
2022/11/28 10:57:24;;;;;;;;;;;7.90;99.90;;;;;;5035043;28;20348;-78
2022/11/28 10:59:58;;;;;;;;;;;7.90;99.90;;;;;;5053435;28;19932;-78
2022/11/28 11:02:33;;;;;;;;;;;7.90;99.90;;;;;;5050818;28;19933;-79
2022/11/28 11:04:58;;;;;;;;;;;7.90;99.90;;;;;;5049964;28;19959;-84
2022/11/28 11:07:31;;;;;;;;;;;7.90;99.90;;;;;;5057292;28;19943;-77
2022/11/28 11:10:16;;;;;;;;;;;7.90;99.90;;;;;;5072516;28;20136;-82
2022/11/28 11:12:43;;;;;;;;;;;8.00;99.90;;;;;;5071455;28;19959;-77
2022/11/28 11:15:15;;;;;;;;;;;8.00;99.90;;;;;;5061675;28;19932;-82
2022/11/28 11:17:41;;;;;;;;;;;8.00;99.90;;;;;;5034988;28;19971;-84
2022/11/28 11:20:22;;;;;;;;;;;8.00;99.90;;;;;;5053390;28;20031;-82
2022/11/28 11:22:55;;;;;;;;;;;8.10;99.90;;;;;;5059052;28;19994;-78
2022/11/28 11:25:21;;;;;;;;;;;8.10;99.90;;;;;;5059639;28;19920;-78
2022/11/28 11:27:59;;;;;;;;;;;8.20;99.90;;;;;;5044386;28;19974;-82
2022/11/28 11:30:25;;;;;;;;;;;8.10;99.90;;;;;;5060873;28;19935;-79
2022/11/28 11:32:51;;;;;;;;;;;8.20;99.90;;;;;;5059633;28;20027;-78
2022/11/28 11:35:20;;;;;;;;;;;8.30;99.90;;;;;;5055675;28;20109;-79
2022/11/28 11:37:46;;;;;;;;;;;8.30;99.90;;;;;;5041791;28;19931;-83
2022/11/28 11:40:24;;;;;;;;;;;8.30;99.90;;;;;;5071958;28;20228;-83
2022/11/28 11:42:51;;;;;;;;;;;8.30;99.90;;;;;;5055308;28;19924;-77
2022/11/28 11:45:35;;;;;;;;;;;8.30;99.90;;;;;;5055740;28;19932;-81
2022/11/28 11:48:02;;;;;;;;;;;8.30;99.90;;;;;;5039587;28;19924;-77
2022/11/28 11:50:29;;;;;;;;;;;8.30;99.90;;;;;;5056381;28;19936;-77
2022/11/28 11:53:01;;;;;;;;;;;8.30;99.90;;;;;;5056155;28;19932;-78
2022/11/28 11:55:28;;;;;;;;;;;8.30;99.90;;;;;;5057000;28;20981;-78
2022/11/28 11:57:54;;;;;;;;;;;8.30;99.90;;;;;;5040032;28;19920;-81
2022/11/28 12:00:46;;;;;;;;;;;8.30;99.90;;;;;;5054139;28;19933;-81
2022/11/28 12:03:17;;;;;;;;;;;8.40;99.90;;;;;;5054464;28;20334;-79
2022/11/28 12:05:46;;;;;;;;;;;8.40;99.90;;;;;;5057153;28;19975;-78
2022/11/28 12:08:15;;;;;;;;;;;8.40;99.90;;;;;;5039925;28;19936;-78
2022/11/28 12:10:45;;;;;;;;;;;8.40;99.90;;;;;;5056432;28;20401;-78
2022/11/28 12:13:20;;;;;;;;;;;8.40;99.90;;;;;;5055874;28;20453;-79
2022/11/28 12:16:04;;;;;;;;;;;8.40;99.90;;;;;;5055930;28;19939;-78
2022/11/28 12:18:48;;;;;;;;;;;8.50;99.90;;;;;;5040792;28;20366;-80
2022/11/28 12:21:19;;;;;;;;;;;8.50;99.90;;;;;;5055845;28;20420;-77
2022/11/28 12:23:48;;;;;;;;;;;8.40;99.90;;;;;;5054646;28;19924;-79
2022/11/28 12:26:13;;;;;;;;;;;8.50;99.90;;;;;;5048386;28;19920;-77
2022/11/28 12:28:57;;;;;;;;;;;8.50;99.90;;;;;;5052343;28;19939;-78
2022/11/28 12:31:23;;;;;;;;;;;8.50;99.90;;;;;;5058900;28;19932;-80
2022/11/28 12:34:07;;;;;;;;;;;8.50;99.90;;;;;;5058326;28;20286;-78
2022/11/28 12:36:48;;;;;;;;;;;8.50;99.90;;;;;;5041555;28;19933;-82
2022/11/28 12:39:34;;;;;;;;;;;8.50;99.90;;;;;;5058310;28;19924;-77
2022/11/28 12:42:28;;;;;;;;;;;8.50;99.90;;;;;;5059318;28;19932;-77
2022/11/28 12:45:12;;;;;;;;;;;8.50;99.90;;;;;;5010369;28;20056;-81
2022/11/28 12:47:42;;;;;;;;;;;8.50;99.90;;;;;;5042520;28;19920;-77
2022/11/28 12:50:08;;;;;;;;;;;8.50;99.90;;;;;;5058770;28;19920;-80
2022/11/28 12:52:52;;;;;;;;;;;8.50;99.90;;;;;;5058033;28;19932;-79
2022/11/28 12:55:22;;;;;;;;;;;8.50;99.90;;;;;;5058127;28;20473;-85
2022/11/28 12:58:04;;;;;;;;;;;8.50;99.90;;;;;;5042487;28;19933;-78
2022/11/28 13:00:30;;;;;;;;;;;8.50;99.90;;;;;;5057598;28;20839;-79
2022/11/28 13:03:01;;;;;;;;;;;8.60;99.90;;;;;;5056495;28;19932;-79
2022/11/28 13:05:33;;;;;;;;;;;8.50;99.90;;;;;;5058067;28;19932;-79
2022/11/28 13:08:25;;;;;;;;;;;8.50;99.90;;;;;;5041851;28;19947;-78
2022/11/28 13:10:53;;;;;;;;;;;8.50;99.90;;;;;;5056607;28;19936;-79
2022/11/28 13:13:22;;;;;;;;;;;8.60;99.90;;;;;;5055216;28;19960;-79
2022/11/28 13:16:07;;;;;;;;;;;8.40;99.90;;;;;;5054647;28;20281;-78
2022/11/28 13:18:37;;;;;;;;;;;8.50;99.90;;;;;;5046929;28;19929;-77
2022/11/28 13:21:11;;;;;;;;;;;8.60;99.90;;;;;;5058171;28;19939;-83
2022/11/28 13:23:52;;;;;;;;;;;8.60;99.90;;;;;;5057178;28;19924;-82
2022/11/28 13:26:38;;;;;;;;;;;8.60;99.90;;;;;;5044947;28;19928;-84
2022/11/28 13:29:13;;;;;;;;;;;8.70;99.90;;;;;;5055100;28;19932;-84
2022/11/28 13:31:44;;;;;;;;;;;8.50;99.90;;;;;;5057031;28;19946;-78
2022/11/28 13:34:14;;;;;;;;;;;8.50;99.90;;;;;;5054680;28;19925;-79
2022/11/28 13:36:43;;;;;;;;;;;8.60;99.90;;;;;;5039925;28;19940;-84
2022/11/28 13:39:12;;;;;;;;;;;8.50;99.90;;;;;;5054558;28;19999;-83
2022/11/28 13:41:38;;;;;;;;;;;8.60;99.90;;;;;;5058465;28;20043;-83
2022/11/28 13:44:14;;;;;;;;;;;8.50;99.90;;;;;;5058032;28;19932;-80
2022/11/28 13:46:43;;;;;;;;;;;8.50;99.90;;;;;;5043719;28;20006;-78
2022/11/28 13:49:18;;;;;;;;;;;8.50;99.90;;;;;;5057109;28;21569;-77
2022/11/28 13:51:43;;;;;;;;;;;8.40;99.90;;;;;;5058668;28;19979;-77
2022/11/28 13:54:21;;;;;;;;;;;8.50;99.90;;;;;;5057345;28;19988;-77
2022/11/28 13:57:06;;;;;;;;;;;8.50;99.90;;;;;;5041066;28;20038;-77
2022/11/28 13:59:32;;;;;;;;;;;8.50;99.90;;;;;;5057083;28;19990;-78
2022/11/28 14:02:01;;;;;;;;;;;8.50;99.90;;;;;;5057811;28;20301;-79
2022/11/28 14:04:27;;;;;;;;;;;8.40;99.90;;;;;;5057597;28;20193;-78
2022/11/28 14:06:58;;;;;;;;;;;8.50;99.90;;;;;;5042803;28;19971;-82
2022/11/28 14:09:23;;;;;;;;;;;8.50;99.90;;;;;;5050960;28;20011;-77
2022/11/28 14:12:04;;;;;;;;;;;8.50;99.90;;;;;;5054086;28;20030;-80
2022/11/28 14:14:32;;;;;;;;;;;8.40;99.90;;;;;;5061382;28;19932;-81
2022/11/28 14:17:04;;;;;;;;;;;8.50;99.90;;;;;;5046318;28;19978;-79
2022/11/28 14:19:35;;;;;;;;;;;8.50;99.90;;;;;;5059304;28;19964;-77
2022/11/28 14:22:19;;;;;;;;;;;8.40;99.90;;;;;;5061306;28;19970;-78
2022/11/28 14:24:54;;;;;;;;;;;8.40;99.90;;;;;;5060721;28;19920;-78
2022/11/28 14:27:22;;;;;;;;;;;8.40;99.90;;;;;;5045219;28;19924;-80
2022/11/28 14:29:49;;;;;;;;;;;8.50;99.90;;;;;;5061774;28;20362;-77
2022/11/28 14:32:27;;;;;;;;;;;8.40;99.90;;;;;;5060010;28;19933;-79
2022/11/28 14:34:53;;;;;;;;;;;8.40;99.90;;;;;;5060825;28;19958;-79
2022/11/28 14:37:19;;;;;;;;;;;8.40;99.90;;;;;;5046549;28;20301;-81
2022/11/28 14:39:44;;;;;;;;;;;8.40;99.90;;;;;;5060899;28;20390;-79
2022/11/28 14:42:10;;;;;;;;;;;8.40;99.90;;;;;;5075496;28;19920;-79
2022/11/28 14:44:44;;;;;;;;;;;8.30;99.90;;;;;;5058179;28;19939;-79